Time;durP1;ratioP1;P1;durP2;ratioP2;P2;SDS_P1;SDS_P2;PMS_P1;PMS_P2;Temp;Humidity;BMP_temperature;BMP_pressure;BME280_temperature;BME280_humidity;BME280_pressure;Samples;Min_cycle;Max_cycle;Signal;HPM_P1;HPM_P2
2022/09/28 00:01:17;;;;;;;;;;;7.50;99.90;;;;;;5108776;28;19924;-57
2022/09/28 00:03:45;;;;;;;;;;;7.50;99.90;;;;;;5095889;27;19924;-61
2022/09/28 00:06:13;;;;;;;;;;;7.60;99.90;;;;;;5115391;27;19931;-57
2022/09/28 00:08:42;;;;;;;;;;;7.60;99.90;;;;;;5101601;28;19923;-60
2022/09/28 00:11:11;;;;;;;;;;;7.60;99.90;;;;;;5112303;28;19936;-57
2022/09/28 00:13:39;;;;;;;;;;;7.60;99.90;;;;;;5110953;27;19924;-59
2022/09/28 00:16:12;;;;;;;;;;;7.50;99.90;;;;;;5111945;28;19924;-58
2022/09/28 00:18:40;;;;;;;;;;;7.40;99.90;;;;;;5090116;28;19923;-56
2022/09/28 00:21:08;;;;;;;;;;;7.40;99.90;;;;;;5093756;28;20303;-55
2022/09/28 00:24:21;;;;;;;;;;;7.40;99.90;;;;;;5110793;28;19931;-59
2022/09/28 00:26:24;;;;;;;;;;;7.30;99.90;;;;;;5098222;28;19924;-56
2022/09/28 00:28:51;;;;;;;;;;;7.30;99.90;;;;;;5109149;27;20401;-55
2022/09/28 00:31:19;;;;;;;;;;;7.20;99.90;;;;;;5131781;27;20394;-55
2022/09/28 00:33:50;;;;;;;;;;;7.10;99.90;;;;;;5088717;27;19931;-55
2022/09/28 00:36:18;;;;;;;;;;;7.10;99.90;;;;;;5131221;27;20401;-57
2022/09/28 00:38:45;;;;;;;;;;;7.10;99.90;;;;;;5102758;28;19962;-55
2022/09/28 00:41:13;;;;;;;;;;;7.00;99.90;;;;;;5110724;28;20371;-55
2022/09/28 00:43:41;;;;;;;;;;;7.00;99.90;;;;;;5111185;27;19931;-56
2022/09/28 00:46:14;;;;;;;;;;;7.00;99.90;;;;;;5113669;27;19946;-60
2022/09/28 00:48:48;;;;;;;;;;;6.90;99.90;;;;;;5108311;27;19931;-58
2022/09/28 00:51:16;;;;;;;;;;;6.90;99.90;;;;;;5093138;28;20310;-62
2022/09/28 00:53:43;;;;;;;;;;;6.90;99.90;;;;;;5094130;27;19935;-61
2022/09/28 00:56:13;;;;;;;;;;;6.80;99.90;;;;;;5123145;27;19924;-61
2022/09/28 00:58:43;;;;;;;;;;;6.80;99.90;;;;;;5109862;28;19930;-62
2022/09/28 01:01:11;;;;;;;;;;;6.70;99.90;;;;;;5074791;28;19923;-62
2022/09/28 01:03:44;;;;;;;;;;;6.70;99.90;;;;;;5088380;27;19934;-61
2022/09/28 01:06:15;;;;;;;;;;;6.70;99.90;;;;;;5109801;27;19927;-61
2022/09/28 01:08:43;;;;;;;;;;;6.70;99.90;;;;;;5125120;27;19924;-60
2022/09/28 01:11:12;;;;;;;;;;;6.60;99.90;;;;;;5092689;28;19935;-61
2022/09/28 01:13:40;;;;;;;;;;;6.60;99.90;;;;;;5091572;27;19924;-62
2022/09/28 01:16:07;;;;;;;;;;;6.50;99.90;;;;;;5112798;27;19931;-61
2022/09/28 01:18:43;;;;;;;;;;;6.50;99.90;;;;;;5100682;28;19932;-62
2022/09/28 01:21:13;;;;;;;;;;;6.40;99.90;;;;;;5110675;28;19928;-60
2022/09/28 01:23:52;;;;;;;;;;;6.40;99.90;;;;;;5110361;27;19938;-61
2022/09/28 01:26:39;;;;;;;;;;;6.40;99.90;;;;;;5131302;27;19931;-62
2022/09/28 01:29:16;;;;;;;;;;;6.40;99.90;;;;;;5115799;27;19939;-61
2022/09/28 01:31:52;;;;;;;;;;;6.30;99.90;;;;;;5083311;28;20307;-60
2022/09/28 01:34:24;;;;;;;;;;;6.30;99.90;;;;;;5106101;28;20287;-62
2022/09/28 01:36:54;;;;;;;;;;;6.30;99.90;;;;;;5108859;28;20276;-58
2022/09/28 01:39:24;;;;;;;;;;;6.30;99.90;;;;;;5091861;28;19923;-62
2022/09/28 01:41:53;;;;;;;;;;;6.30;99.90;;;;;;5111312;28;19939;-61
2022/09/28 01:44:21;;;;;;;;;;;6.20;99.90;;;;;;5095146;28;19924;-62
2022/09/28 01:46:49;;;;;;;;;;;6.20;99.90;;;;;;5093415;28;19924;-60
2022/09/28 01:49:30;;;;;;;;;;;6.20;99.90;;;;;;5095494;28;19931;-61
2022/09/28 01:52:05;;;;;;;;;;;6.10;99.90;;;;;;5091809;28;19931;-60
2022/09/28 01:54:43;;;;;;;;;;;6.10;99.90;;;;;;5095030;28;19924;-59
2022/09/28 01:57:31;;;;;;;;;;;6.10;99.90;;;;;;5097119;27;19924;-60
2022/09/28 02:00:01;;;;;;;;;;;6.00;99.90;;;;;;5115180;27;20367;-59
2022/09/28 02:02:47;;;;;;;;;;;6.00;99.90;;;;;;5110508;28;20318;-61
2022/09/28 02:05:28;;;;;;;;;;;5.90;99.90;;;;;;5094833;28;20082;-58
2022/09/28 02:08:01;;;;;;;;;;;5.90;99.90;;;;;;5093136;28;19924;-58
2022/09/28 02:10:55;;;;;;;;;;;5.90;99.90;;;;;;5078192;28;19946;-61
2022/09/28 02:13:26;;;;;;;;;;;5.90;99.90;;;;;;5091965;28;19946;-60
2022/09/28 02:16:00;;;;;;;;;;;5.80;99.90;;;;;;5092960;28;19924;-61
2022/09/28 02:18:28;;;;;;;;;;;5.80;99.90;;;;;;5112689;28;20398;-58
2022/09/28 02:21:02;;;;;;;;;;;5.80;99.90;;;;;;5092660;28;19930;-59
2022/09/28 02:23:32;;;;;;;;;;;5.70;99.90;;;;;;5111066;28;19923;-59
2022/09/28 02:26:04;;;;;;;;;;;5.80;99.90;;;;;;5094571;28;19924;-61
2022/09/28 02:28:31;;;;;;;;;;;5.70;99.90;;;;;;5107851;27;19923;-59
2022/09/28 02:30:59;;;;;;;;;;;5.70;99.90;;;;;;5103139;28;19923;-60
2022/09/28 02:33:34;;;;;;;;;;;5.70;99.90;;;;;;5094233;28;20462;-58
2022/09/28 02:36:02;;;;;;;;;;;5.70;99.90;;;;;;5094608;28;19950;-60
2022/09/28 02:38:35;;;;;;;;;;;5.70;99.90;;;;;;5094654;28;19924;-60
2022/09/28 02:41:07;;;;;;;;;;;5.70;99.90;;;;;;5094668;28;19931;-60
2022/09/28 02:43:37;;;;;;;;;;;5.70;99.90;;;;;;5094357;28;19931;-60
2022/09/28 02:46:04;;;;;;;;;;;5.80;99.90;;;;;;5077412;28;19924;-60
2022/09/28 02:48:58;;;;;;;;;;;5.70;99.90;;;;;;5094453;28;19947;-58
2022/09/28 02:52:00;;;;;;;;;;;5.70;99.90;;;;;;5094259;28;19924;-57
2022/09/28 02:54:35;;;;;;;;;;;5.70;99.90;;;;;;5112444;28;19931;-56
2022/09/28 02:57:05;;;;;;;;;;;5.70;99.90;;;;;;5095066;28;19931;-55
2022/09/28 02:59:36;;;;;;;;;;;5.70;99.90;;;;;;5114768;28;19924;-57
2022/09/28 03:02:14;;;;;;;;;;;5.70;99.90;;;;;;5097502;28;20395;-56
2022/09/28 03:04:46;;;;;;;;;;;5.80;99.90;;;;;;5114608;28;19931;-56
2022/09/28 03:07:26;;;;;;;;;;;5.70;99.90;;;;;;5114625;28;19924;-56
2022/09/28 03:09:59;;;;;;;;;;;5.70;99.90;;;;;;5114653;28;19924;-56
2022/09/28 03:12:28;;;;;;;;;;;5.70;99.90;;;;;;5114139;28;19930;-56
2022/09/28 03:15:09;;;;;;;;;;;5.70;99.90;;;;;;5114372;28;19923;-55
2022/09/28 03:17:37;;;;;;;;;;;5.70;99.90;;;;;;5114666;28;19923;-56
2022/09/28 03:20:05;;;;;;;;;;;5.60;99.90;;;;;;5114522;28;19931;-58
2022/09/28 03:22:33;;;;;;;;;;;5.60;99.90;;;;;;5114426;28;19924;-59
2022/09/28 03:25:00;;;;;;;;;;;5.60;99.90;;;;;;5132957;28;20306;-58
2022/09/28 03:27:28;;;;;;;;;;;5.60;99.90;;;;;;5113611;28;20437;-58
2022/09/28 03:29:55;;;;;;;;;;;5.60;99.90;;;;;;5114343;28;19923;-60
2022/09/28 03:32:24;;;;;;;;;;;5.60;99.90;;;;;;5132357;28;20262;-60
2022/09/28 03:34:52;;;;;;;;;;;5.60;99.90;;;;;;5132733;28;19923;-58
2022/09/28 03:37:19;;;;;;;;;;;5.60;99.90;;;;;;5116576;27;19930;-62
2022/09/28 03:39:47;;;;;;;;;;;5.50;99.90;;;;;;5135931;27;19931;-61
2022/09/28 03:42:14;;;;;;;;;;;5.50;99.90;;;;;;5118196;27;19934;-62
2022/09/28 03:44:46;;;;;;;;;;;5.50;99.90;;;;;;5090129;28;19931;-59
2022/09/28 03:47:16;;;;;;;;;;;5.50;99.90;;;;;;5097639;28;19924;-61
2022/09/28 03:49:44;;;;;;;;;;;5.50;99.90;;;;;;5115939;28;19924;-61
2022/09/28 03:52:12;;;;;;;;;;;5.50;99.90;;;;;;5080853;28;19924;-60
2022/09/28 03:54:40;;;;;;;;;;;5.40;99.90;;;;;;5097381;28;19923;-60
2022/09/28 03:57:12;;;;;;;;;;;5.40;99.90;;;;;;5117789;27;19967;-61
2022/09/28 03:59:39;;;;;;;;;;;5.30;99.90;;;;;;5100929;27;19928;-58
2022/09/28 04:02:07;;;;;;;;;;;5.30;99.90;;;;;;5117890;27;19924;-62
2022/09/28 04:04:34;;;;;;;;;;;5.20;99.90;;;;;;5117963;27;19924;-61
2022/09/28 04:07:02;;;;;;;;;;;5.20;99.90;;;;;;5117849;27;19931;-61
2022/09/28 04:09:29;;;;;;;;;;;5.10;99.90;;;;;;5136051;27;19931;-61
2022/09/28 04:11:56;;;;;;;;;;;5.10;99.90;;;;;;5117743;27;19923;-61
2022/09/28 04:14:32;;;;;;;;;;;5.10;99.90;;;;;;5117662;27;19924;-60
2022/09/28 04:16:59;;;;;;;;;;;5.00;99.90;;;;;;5117439;27;19923;-59
2022/09/28 04:19:28;;;;;;;;;;;5.00;99.90;;;;;;5117408;27;19951;-63
2022/09/28 04:22:15;;;;;;;;;;;5.00;99.90;;;;;;5124784;27;19930;-64
2022/09/28 04:24:43;;;;;;;;;;;5.00;99.90;;;;;;5117535;27;20407;-62
2022/09/28 04:29:56;;;;;;;;;;;4.90;99.90;;;;;;5100277;27;20425;-61
2022/09/28 04:32:23;;;;;;;;;;;4.90;99.90;;;;;;5117270;27;19923;-63
2022/09/28 04:34:51;;;;;;;;;;;4.90;99.90;;;;;;5117431;27;19923;-62
2022/09/28 04:37:18;;;;;;;;;;;4.90;99.90;;;;;;5135685;27;19928;-68
2022/09/28 04:39:46;;;;;;;;;;;4.80;99.90;;;;;;5117385;27;20382;-62
2022/09/28 04:42:17;;;;;;;;;;;4.80;99.90;;;;;;5116947;27;19930;-59
2022/09/28 04:44:45;;;;;;;;;;;4.80;99.90;;;;;;5117092;27;19923;-61
2022/09/28 04:47:12;;;;;;;;;;;4.80;99.90;;;;;;5112527;27;19934;-62
2022/09/28 04:50:00;;;;;;;;;;;4.80;99.90;;;;;;5089331;28;19927;-60
2022/09/28 04:52:31;;;;;;;;;;;4.80;99.90;;;;;;5072853;28;19924;-62
2022/09/28 04:54:58;;;;;;;;;;;4.80;99.90;;;;;;5072798;28;20351;-61
2022/09/28 04:57:26;;;;;;;;;;;4.80;99.90;;;;;;5080403;27;19932;-59
2022/09/28 04:59:54;;;;;;;;;;;4.80;99.90;;;;;;5131813;27;20303;-59
2022/09/28 05:02:21;;;;;;;;;;;4.80;99.90;;;;;;5096887;28;21653;-60
2022/09/28 05:05:07;;;;;;;;;;;4.80;99.90;;;;;;5087547;28;19928;-57
2022/09/28 05:08:03;;;;;;;;;;;4.70;99.90;;;;;;5086330;27;19931;-58
2022/09/28 05:10:30;;;;;;;;;;;4.60;99.90;;;;;;5112463;27;19931;-59
2022/09/28 05:13:00;;;;;;;;;;;4.60;99.90;;;;;;5098418;28;19930;-60
2022/09/28 05:15:28;;;;;;;;;;;4.60;99.90;;;;;;5107589;28;19931;-58
2022/09/28 05:17:55;;;;;;;;;;;4.50;99.90;;;;;;5089407;28;19924;-59
2022/09/28 05:20:41;;;;;;;;;;;4.50;99.90;;;;;;5068843;28;19932;-64
2022/09/28 05:23:09;;;;;;;;;;;4.40;99.90;;;;;;5081416;28;20486;-60
2022/09/28 05:25:37;;;;;;;;;;;5.30;99.90;;;;;;5089279;28;19924;-57
2022/09/28 05:28:18;;;;;;;;;;;4.40;99.90;;;;;;5099578;28;19931;-57
2022/09/28 05:31:06;;;;;;;;;;;4.30;99.90;;;;;;5110375;28;19923;-57
2022/09/28 05:33:53;;;;;;;;;;;4.30;99.90;;;;;;5079597;28;19925;-58
2022/09/28 05:36:21;;;;;;;;;;;4.30;99.90;;;;;;5068658;28;19932;-57
2022/09/28 05:38:49;;;;;;;;;;;4.30;99.90;;;;;;5098136;28;19924;-62
2022/09/28 05:41:16;;;;;;;;;;;4.30;99.90;;;;;;5109066;28;19924;-60
2022/09/28 05:43:44;;;;;;;;;;;4.30;99.90;;;;;;5088471;28;19944;-62
2022/09/28 05:46:11;;;;;;;;;;;4.40;99.90;;;;;;5085067;28;19928;-60
2022/09/28 05:48:40;;;;;;;;;;;4.30;99.90;;;;;;5087205;28;19927;-58
2022/09/28 05:51:09;;;;;;;;;;;4.20;99.90;;;;;;5087327;28;19935;-57
2022/09/28 05:53:36;;;;;;;;;;;4.20;99.90;;;;;;5101949;28;19934;-57
2022/09/28 05:56:04;;;;;;;;;;;4.20;99.90;;;;;;5105963;28;19935;-59
2022/09/28 05:58:34;;;;;;;;;;;4.20;99.90;;;;;;5108392;28;19927;-63
2022/09/28 06:01:02;;;;;;;;;;;4.30;99.90;;;;;;5101307;28;20363;-59
2022/09/28 06:03:30;;;;;;;;;;;4.20;99.90;;;;;;5089670;28;19924;-60
2022/09/28 06:05:59;;;;;;;;;;;4.20;99.90;;;;;;5076160;28;19924;-58
2022/09/28 06:08:26;;;;;;;;;;;4.30;99.90;;;;;;5095576;28;19924;-59
2022/09/28 06:11:11;;;;;;;;;;;4.20;99.90;;;;;;5073448;28;19925;-62
2022/09/28 06:13:38;;;;;;;;;;;4.20;99.90;;;;;;5093186;28;19943;-56
2022/09/28 06:16:06;;;;;;;;;;;4.20;99.90;;;;;;5088002;28;19924;-56
2022/09/28 06:18:34;;;;;;;;;;;4.30;99.90;;;;;;5088602;28;19932;-58
2022/09/28 06:21:20;;;;;;;;;;;4.30;99.90;;;;;;5073269;28;19932;-58
2022/09/28 06:23:49;;;;;;;;;;;4.30;99.90;;;;;;5104621;27;19927;-57
2022/09/28 06:26:18;;;;;;;;;;;4.30;99.90;;;;;;5108387;27;19923;-58
2022/09/28 06:28:46;;;;;;;;;;;4.30;99.90;;;;;;5092894;28;19923;-58
2022/09/28 06:31:14;;;;;;;;;;;4.30;99.90;;;;;;5086245;28;19924;-56
2022/09/28 06:33:51;;;;;;;;;;;4.20;99.90;;;;;;5095290;28;19939;-61
2022/09/28 06:36:19;;;;;;;;;;;4.20;99.90;;;;;;5087933;28;19924;-64
2022/09/28 06:38:48;;;;;;;;;;;4.20;99.90;;;;;;5095307;28;20350;-63
2022/09/28 06:41:17;;;;;;;;;;;4.20;99.90;;;;;;5105276;28;20370;-62
2022/09/28 06:43:48;;;;;;;;;;;4.10;99.90;;;;;;5086865;28;20295;-60
2022/09/28 06:46:37;;;;;;;;;;;4.20;99.90;;;;;;5097655;28;19924;-61
2022/09/28 06:49:29;;;;;;;;;;;4.40;99.90;;;;;;5083620;28;20405;-62
2022/09/28 06:52:15;;;;;;;;;;;4.30;99.90;;;;;;5099357;28;19931;-62
2022/09/28 06:55:05;;;;;;;;;;;4.30;99.90;;;;;;5091075;28;20383;-63
2022/09/28 06:57:41;;;;;;;;;;;4.30;99.90;;;;;;5084497;28;20291;-64
2022/09/28 07:00:09;;;;;;;;;;;4.30;99.90;;;;;;5070700;28;19925;-61
2022/09/28 07:02:43;;;;;;;;;;;4.30;99.90;;;;;;5085558;28;19935;-62
2022/09/28 07:05:33;;;;;;;;;;;4.40;99.90;;;;;;5105896;28;19935;-61
2022/09/28 07:08:24;;;;;;;;;;;4.40;99.90;;;;;;5076715;28;19942;-62
2022/09/28 07:11:20;;;;;;;;;;;4.40;99.90;;;;;;5083731;28;20025;-62
2022/09/28 07:14:11;;;;;;;;;;;4.40;99.90;;;;;;5098023;28;19931;-63
2022/09/28 07:16:58;;;;;;;;;;;4.50;99.90;;;;;;5054909;28;19931;-62
2022/09/28 07:19:41;;;;;;;;;;;4.50;99.90;;;;;;5089691;28;19924;-63
2022/09/28 07:22:13;;;;;;;;;;;4.50;99.90;;;;;;5081230;28;19932;-62
2022/09/28 07:24:47;;;;;;;;;;;4.60;99.90;;;;;;5083203;28;19928;-57
2022/09/28 07:27:38;;;;;;;;;;;4.60;99.90;;;;;;5072785;28;19931;-63
2022/09/28 07:30:32;;;;;;;;;;;4.70;99.90;;;;;;5073167;28;19924;-61
2022/09/28 07:33:13;;;;;;;;;;;4.70;99.90;;;;;;5085623;28;19928;-64
2022/09/28 07:35:52;;;;;;;;;;;4.70;99.90;;;;;;5071320;28;19925;-65
2022/09/28 07:38:22;;;;;;;;;;;4.80;99.90;;;;;;5080890;28;19928;-63
2022/09/28 07:43:38;;;;;;;;;;;5.00;99.90;;;;;;5090470;28;19935;-63
2022/09/28 07:46:12;;;;;;;;;;;5.10;99.90;;;;;;5087758;28;19925;-61
2022/09/28 07:48:48;;;;;;;;;;;5.20;99.90;;;;;;5102366;28;19923;-61
2022/09/28 07:51:21;;;;;;;;;;;5.30;99.90;;;;;;5111363;28;19935;-60
2022/09/28 07:54:08;;;;;;;;;;;5.40;99.90;;;;;;5093032;28;20251;-63
2022/09/28 07:56:54;;;;;;;;;;;5.50;99.90;;;;;;5091346;28;19931;-63
2022/09/28 07:59:52;;;;;;;;;;;5.60;99.90;;;;;;5055875;28;19928;-63
2022/09/28 08:02:47;;;;;;;;;;;5.70;99.90;;;;;;5077781;28;19931;-61
2022/09/28 08:05:20;;;;;;;;;;;5.90;99.90;;;;;;5090672;28;19928;-60
2022/09/28 08:07:48;;;;;;;;;;;6.00;99.90;;;;;;5091219;28;20379;-57
2022/09/28 08:10:16;;;;;;;;;;;6.20;99.90;;;;;;5090591;28;19924;-58
2022/09/28 08:13:15;;;;;;;;;;;6.30;99.90;;;;;;5090415;28;19924;-57
2022/09/28 08:16:11;;;;;;;;;;;6.50;99.90;;;;;;5069985;28;19924;-62
2022/09/28 08:18:57;;;;;;;;;;;6.70;99.90;;;;;;5087461;28;20271;-59
2022/09/28 08:24:12;;;;;;;;;;;7.00;99.90;;;;;;5076622;28;19946;-56
2022/09/28 08:26:41;;;;;;;;;;;7.10;99.90;;;;;;5073378;28;19928;-58
2022/09/28 08:29:10;;;;;;;;;;;7.20;99.90;;;;;;5124487;27;20268;-61
2022/09/28 08:31:58;;;;;;;;;;;7.30;99.90;;;;;;5060511;27;19924;-58
2022/09/28 08:34:34;;;;;;;;;;;7.40;99.90;;;;;;5132229;27;20374;-62
2022/09/28 08:37:37;;;;;;;;;;;7.40;99.90;;;;;;5068252;28;19925;-61
2022/09/28 08:40:24;;;;;;;;;;;7.50;99.90;;;;;;5127219;27;19923;-62
2022/09/28 08:43:31;;;;;;;;;;;7.60;99.90;;;;;;5078420;28;20455;-59
2022/09/28 08:46:11;;;;;;;;;;;7.70;99.90;;;;;;5094525;28;19928;-60
2022/09/28 08:49:04;;;;;;;;;;;7.70;99.90;;;;;;5105627;28;19924;-60
2022/09/28 08:52:22;;;;;;;;;;;7.90;99.90;;;;;;5093696;28;19924;-59
2022/09/28 08:55:12;;;;;;;;;;;7.90;99.90;;;;;;5111449;28;19924;-61
2022/09/28 08:57:46;;;;;;;;;;;8.00;99.90;;;;;;5098930;27;19923;-61
2022/09/28 09:00:18;;;;;;;;;;;8.10;99.90;;;;;;5096304;28;19924;-62
2022/09/28 09:02:46;;;;;;;;;;;8.10;99.90;;;;;;5079706;28;19924;-56
2022/09/28 09:05:19;;;;;;;;;;;8.20;99.90;;;;;;5093020;28;19924;-59
2022/09/28 09:08:03;;;;;;;;;;;8.30;99.90;;;;;;5099551;27;19923;-58
2022/09/28 09:10:38;;;;;;;;;;;8.30;99.90;;;;;;5113187;27;19931;-59
2022/09/28 09:13:11;;;;;;;;;;;8.40;99.90;;;;;;5102872;28;19924;-61
2022/09/28 09:15:47;;;;;;;;;;;8.50;99.90;;;;;;5088239;28;20383;-62
2022/09/28 09:18:34;;;;;;;;;;;8.60;99.90;;;;;;5081605;28;19930;-62
2022/09/28 09:21:28;;;;;;;;;;;8.60;99.90;;;;;;5092853;28;19924;-59
2022/09/28 09:24:00;;;;;;;;;;;8.70;99.90;;;;;;5092339;28;19931;-58
2022/09/28 09:26:35;;;;;;;;;;;8.80;99.90;;;;;;5110917;28;20260;-62
2022/09/28 09:29:21;;;;;;;;;;;8.80;99.90;;;;;;5127878;27;20286;-63
2022/09/28 09:31:58;;;;;;;;;;;8.90;99.90;;;;;;5072594;28;19924;-60
2022/09/28 09:34:49;;;;;;;;;;;9.00;99.90;;;;;;5071518;28;20002;-62
2022/09/28 09:37:41;;;;;;;;;;;9.10;99.90;;;;;;5095420;27;21071;-60
2022/09/28 09:40:44;;;;;;;;;;;9.30;99.90;;;;;;5115791;27;19923;-60
2022/09/28 09:43:36;;;;;;;;;;;9.30;99.90;;;;;;5117432;27;19923;-57
2022/09/28 09:46:35;;;;;;;;;;;9.40;99.90;;;;;;5095857;28;19928;-59
2022/09/28 09:49:23;;;;;;;;;;;9.50;99.90;;;;;;5091579;28;19931;-56
2022/09/28 09:52:14;;;;;;;;;;;9.60;99.90;;;;;;5091896;28;19927;-63
2022/09/28 09:54:45;;;;;;;;;;;9.80;99.90;;;;;;5071594;28;19928;-63
2022/09/28 09:57:31;;;;;;;;;;;10.00;99.90;;;;;;5091309;27;19932;-58
2022/09/28 10:00:18;;;;;;;;;;;10.10;99.90;;;;;;5107087;27;20441;-60
2022/09/28 10:03:02;;;;;;;;;;;10.20;99.90;;;;;;5080209;28;19935;-63
2022/09/28 10:05:38;;;;;;;;;;;10.30;99.90;;;;;;5091801;28;19927;-57
2022/09/28 10:08:05;;;;;;;;;;;10.40;99.90;;;;;;5091592;28;19924;-58
2022/09/28 10:10:34;;;;;;;;;;;10.40;99.90;;;;;;5090878;28;20383;-60
2022/09/28 10:13:12;;;;;;;;;;;10.50;99.90;;;;;;5101912;27;19931;-63
2022/09/28 10:15:41;;;;;;;;;;;10.60;99.90;;;;;;5099102;28;20292;-62
2022/09/28 10:18:14;;;;;;;;;;;10.50;99.90;;;;;;5078828;28;19928;-63
2022/09/28 10:21:05;;;;;;;;;;;10.60;99.90;;;;;;5080253;28;19931;-63
2022/09/28 10:23:55;;;;;;;;;;;10.70;99.90;;;;;;5109514;28;19931;-62
2022/09/28 10:26:33;;;;;;;;;;;10.70;99.90;;;;;;5091871;28;19931;-62
2022/09/28 10:29:03;;;;;;;;;;;10.90;99.90;;;;;;5108386;27;19938;-57
2022/09/28 10:31:42;;;;;;;;;;;10.90;99.90;;;;;;5085945;28;19950;-57
2022/09/28 10:34:34;;;;;;;;;;;11.00;99.90;;;;;;5083402;28;19924;-57
2022/09/28 10:37:09;;;;;;;;;;;11.00;99.90;;;;;;5070648;28;20398;-58
2022/09/28 10:39:56;;;;;;;;;;;11.10;99.90;;;;;;5071091;28;19931;-57
2022/09/28 10:42:27;;;;;;;;;;;11.20;99.90;;;;;;5087683;28;19928;-57
2022/09/28 10:44:59;;;;;;;;;;;11.30;99.90;;;;;;5070824;28;19928;-57
2022/09/28 10:47:42;;;;;;;;;;;11.30;99.90;;;;;;5075939;27;20421;-59
2022/09/28 10:50:19;;;;;;;;;;;11.40;99.90;;;;;;5111550;27;20458;-61
2022/09/28 10:52:48;;;;;;;;;;;11.40;99.90;;;;;;5104314;28;19928;-57
2022/09/28 10:55:36;;;;;;;;;;;11.50;99.90;;;;;;5108837;28;19935;-57
2022/09/28 10:58:43;;;;;;;;;;;11.60;99.90;;;;;;5097272;27;19924;-56
2022/09/28 11:01:25;;;;;;;;;;;11.70;99.90;;;;;;5016117;28;19925;-62
2022/09/28 11:03:58;;;;;;;;;;;11.80;99.90;;;;;;4986173;28;19926;-59
2022/09/28 11:06:36;;;;;;;;;;;12.00;99.90;;;;;;5050010;28;19935;-63
2022/09/28 11:09:06;;;;;;;;;;;12.10;99.90;;;;;;5057382;28;19931;-58
2022/09/28 11:11:40;;;;;;;;;;;12.30;99.90;;;;;;5091005;28;19924;-60
2022/09/28 11:14:26;;;;;;;;;;;12.50;99.90;;;;;;5090574;28;19924;-61
2022/09/28 11:17:16;;;;;;;;;;;12.60;99.90;;;;;;5077105;28;19928;-59
2022/09/28 11:19:45;;;;;;;;;;;12.80;99.90;;;;;;5070535;28;19959;-60
2022/09/28 11:22:19;;;;;;;;;;;13.00;99.90;;;;;;5088890;28;19928;-62
2022/09/28 11:24:47;;;;;;;;;;;13.30;99.90;;;;;;5107483;28;19927;-59
2022/09/28 11:27:19;;;;;;;;;;;13.30;99.90;;;;;;5128588;28;20405;-63
2022/09/28 11:30:10;;;;;;;;;;;13.30;99.90;;;;;;5070381;28;19931;-63
2022/09/28 11:32:52;;;;;;;;;;;13.40;99.90;;;;;;5078015;28;19924;-62
2022/09/28 11:35:49;;;;;;;;;;;13.70;99.90;;;;;;5108739;28;19931;-63
2022/09/28 11:38:17;;;;;;;;;;;14.00;99.90;;;;;;5107480;28;19924;-63
2022/09/28 11:41:16;;;;;;;;;;;14.30;99.90;;;;;;5094081;28;19923;-60
2022/09/28 11:44:09;;;;;;;;;;;14.60;99.90;;;;;;5090165;28;19931;-62
2022/09/28 11:46:44;;;;;;;;;;;14.80;99.90;;;;;;5081641;28;19931;-59
2022/09/28 11:49:15;;;;;;;;;;;15.20;99.90;;;;;;5101494;28;19968;-62
2022/09/28 11:51:44;;;;;;;;;;;15.70;99.90;;;;;;5110888;28;20310;-58
2022/09/28 11:54:17;;;;;;;;;;;15.90;99.90;;;;;;5092358;28;19928;-62
2022/09/28 11:56:47;;;;;;;;;;;16.20;99.90;;;;;;5108012;28;19931;-58
2022/09/28 11:59:38;;;;;;;;;;;16.50;99.90;;;;;;5115177;27;19947;-58
2022/09/28 12:02:09;;;;;;;;;;;16.90;99.90;;;;;;5083409;28;19974;-61
2022/09/28 12:04:45;;;;;;;;;;;17.30;99.90;;;;;;5094046;28;20354;-59
2022/09/28 12:07:17;;;;;;;;;;;17.60;99.90;;;;;;5111049;28;19924;-58
2022/09/28 12:09:51;;;;;;;;;;;17.60;99.90;;;;;;5094133;28;19932;-59
2022/09/28 12:12:42;;;;;;;;;;;17.80;99.90;;;;;;5093759;27;19924;-60
2022/09/28 12:15:14;;;;;;;;;;;18.10;99.90;;;;;;5094176;28;19924;-61
2022/09/28 12:17:44;;;;;;;;;;;18.00;99.90;;;;;;5102134;27;19932;-61
2022/09/28 12:20:25;;;;;;;;;;;17.60;99.90;;;;;;5132155;27;19924;-58
2022/09/28 12:22:59;;;;;;;;;;;17.00;99.90;;;;;;5125342;27;20291;-59
2022/09/28 12:25:27;;;;;;;;;;;16.30;99.90;;;;;;5111807;28;19924;-60
2022/09/28 12:27:57;;;;;;;;;;;15.80;99.90;;;;;;5119550;27;19944;-60
2022/09/28 12:30:26;;;;;;;;;;;15.40;99.90;;;;;;5132470;27;19923;-63
2022/09/28 12:33:03;;;;;;;;;;;15.00;99.90;;;;;;5105987;27;20295;-60
2022/09/28 12:35:30;;;;;;;;;;;14.60;99.90;;;;;;5111567;28;20294;-60
2022/09/28 12:38:16;;;;;;;;;;;14.50;99.90;;;;;;5116481;27;20318;-62
2022/09/28 12:40:48;;;;;;;;;;;14.90;99.90;;;;;;5132305;27;19931;-62
2022/09/28 12:43:28;;;;;;;;;;;15.90;99.90;;;;;;5121676;27;19927;-61
2022/09/28 12:45:56;;;;;;;;;;;16.80;99.90;;;;;;5111427;28;19923;-63
2022/09/28 12:49:08;;;;;;;;;;;17.00;99.90;;;;;;5112833;27;20500;-64
2022/09/28 12:51:59;;;;;;;;;;;16.50;99.90;;;;;;5124695;27;19924;-63
2022/09/28 12:54:43;;;;;;;;;;;16.10;99.90;;;;;;5111469;27;19947;-63
2022/09/28 12:57:10;;;;;;;;;;;16.00;99.90;;;;;;5112894;27;19924;-63
2022/09/28 12:59:40;;;;;;;;;;;16.60;99.90;;;;;;5113087;27;19930;-63
2022/09/28 13:02:26;;;;;;;;;;;17.40;99.90;;;;;;5116388;27;20371;-63
2022/09/28 13:05:13;;;;;;;;;;;18.20;99.90;;;;;;5111232;28;19923;-64
2022/09/28 13:07:49;;;;;;;;;;;18.90;99.90;;;;;;5111142;28;19924;-63
2022/09/28 13:10:32;;;;;;;;;;;18.80;99.90;;;;;;5110142;28;19943;-63
2022/09/28 13:13:18;;;;;;;;;;;18.50;99.90;;;;;;5110012;28;20397;-63
2022/09/28 13:16:04;;;;;;;;;;;18.50;99.90;;;;;;5111098;28;19924;-58
2022/09/28 13:18:36;;;;;;;;;;;18.70;99.90;;;;;;5101847;28;19938;-60
2022/09/28 13:21:04;;;;;;;;;;;18.70;99.90;;;;;;5092498;28;19938;-59
2022/09/28 13:23:42;;;;;;;;;;;18.40;99.90;;;;;;5120449;27;20476;-58
2022/09/28 13:26:19;;;;;;;;;;;18.00;99.90;;;;;;5110111;27;19927;-59
2022/09/28 13:28:49;;;;;;;;;;;18.20;99.90;;;;;;5130393;27;20294;-58
2022/09/28 13:31:21;;;;;;;;;;;18.60;99.90;;;;;;5131409;27;19935;-58
2022/09/28 13:33:50;;;;;;;;;;;19.30;99.90;;;;;;5105153;27;19924;-61
2022/09/28 13:36:26;;;;;;;;;;;20.00;99.90;;;;;;5106866;28;19924;-59
2022/09/28 13:38:54;;;;;;;;;;;20.80;99.90;;;;;;5088631;28;19935;-62
2022/09/28 13:41:30;;;;;;;;;;;21.20;99.90;;;;;;5110478;28;19949;-63
2022/09/28 13:44:10;;;;;;;;;;;21.40;99.90;;;;;;5110253;28;19923;-61
2022/09/28 13:46:46;;;;;;;;;;;21.20;99.90;;;;;;5109283;28;20389;-61
2022/09/28 13:49:20;;;;;;;;;;;21.10;99.90;;;;;;5091746;28;19928;-60
2022/09/28 13:51:57;;;;;;;;;;;21.10;99.90;;;;;;5110117;28;19931;-60
2022/09/28 13:54:35;;;;;;;;;;;20.80;99.90;;;;;;5109085;28;20410;-60
2022/09/28 13:57:08;;;;;;;;;;;20.40;99.90;;;;;;5110435;27;19924;-59
2022/09/28 13:59:46;;;;;;;;;;;19.80;99.90;;;;;;5130239;27;19923;-57
2022/09/28 14:02:23;;;;;;;;;;;19.20;99.90;;;;;;5123033;27;20406;-57
2022/09/28 14:04:52;;;;;;;;;;;18.60;99.90;;;;;;5110166;28;19941;-58
2022/09/28 14:07:39;;;;;;;;;;;18.00;99.90;;;;;;5109133;28;19923;-58
2022/09/28 14:10:19;;;;;;;;;;;17.50;99.90;;;;;;5064525;28;20294;-60
2022/09/28 14:12:48;;;;;;;;;;;16.90;99.90;;;;;;5089472;28;19924;-58
2022/09/28 14:15:35;;;;;;;;;;;16.40;99.90;;;;;;5091201;28;19938;-58
2022/09/28 14:18:23;;;;;;;;;;;16.20;99.90;;;;;;5110044;27;19927;-57
2022/09/28 14:20:54;;;;;;;;;;;16.00;99.90;;;;;;5112933;27;20306;-58
2022/09/28 14:23:44;;;;;;;;;;;15.90;99.90;;;;;;5119445;27;19924;-60
2022/09/28 14:26:40;;;;;;;;;;;15.80;99.90;;;;;;5109731;28;19934;-59
2022/09/28 14:29:21;;;;;;;;;;;15.70;99.90;;;;;;5127349;27;19923;-61
2022/09/28 14:31:48;;;;;;;;;;;15.60;99.90;;;;;;5130069;27;19931;-62
2022/09/28 14:34:33;;;;;;;;;;;15.50;99.90;;;;;;5069824;28;19935;-61
2022/09/28 14:42:34;;;;;;;;;;;15.40;99.90;;;;;;5112707;27;19931;-62
2022/09/28 14:45:01;;;;;;;;;;;15.30;99.90;;;;;;5129849;27;19924;-58
2022/09/28 14:47:35;;;;;;;;;;;15.10;99.90;;;;;;5103597;28;20406;-61
2022/09/28 14:50:21;;;;;;;;;;;14.80;99.90;;;;;;5129626;27;19930;-60
2022/09/28 14:52:56;;;;;;;;;;;14.70;99.90;;;;;;5123904;27;19924;-60
2022/09/28 14:55:26;;;;;;;;;;;14.50;99.90;;;;;;5109716;28;19923;-59
2022/09/28 14:57:56;;;;;;;;;;;14.40;99.90;;;;;;5117105;27;20333;-60
2022/09/28 15:00:25;;;;;;;;;;;14.30;99.90;;;;;;5129290;27;19931;-61
2022/09/28 15:02:54;;;;;;;;;;;14.30;99.90;;;;;;5117129;27;20295;-57
2022/09/28 15:05:23;;;;;;;;;;;14.30;99.90;;;;;;5070494;28;19924;-56
2022/09/28 15:07:52;;;;;;;;;;;14.30;99.90;;;;;;5095221;28;19931;-57
2022/09/28 15:10:27;;;;;;;;;;;14.30;99.90;;;;;;5129692;28;19930;-58
2022/09/28 15:12:55;;;;;;;;;;;14.30;99.90;;;;;;5104497;28;20470;-57
2022/09/28 15:15:32;;;;;;;;;;;14.30;99.90;;;;;;5109218;28;19946;-57
2022/09/28 15:18:17;;;;;;;;;;;14.40;99.90;;;;;;5089262;28;19931;-58
2022/09/28 15:20:46;;;;;;;;;;;14.40;99.90;;;;;;5108741;28;19928;-58
2022/09/28 15:23:33;;;;;;;;;;;14.40;99.90;;;;;;5099493;28;19935;-59
2022/09/28 15:26:01;;;;;;;;;;;14.40;99.90;;;;;;5129395;28;20294;-60
2022/09/28 15:28:29;;;;;;;;;;;14.40;99.90;;;;;;5110221;28;20001;-62
2022/09/28 15:31:01;;;;;;;;;;;14.50;99.90;;;;;;5127715;28;19923;-62